Time;durP1;ratioP1;P1;durP2;ratioP2;P2;SDS_P1;SDS_P2;PMS_P1;PMS_P2;Temp;Humidity;BMP_temperature;BMP_pressure;BME280_temperature;BME280_humidity;BME280_pressure;Samples;Min_cycle;Max_cycle;Signal;HPM_P1;HPM_P2
2023/05/31 00:01:26;;;;;;;9.15;7.18;;;21.40;71.90;;;;;;4939832;29;20024;-46
2023/05/31 00:03:51;;;;;;;9.15;6.97;;;21.40;72.00;;;;;;4948272;29;20479;-47
2023/05/31 00:06:17;;;;;;;13.13;8.63;;;21.30;72.10;;;;;;4937158;28;20032;-47
2023/05/31 00:08:43;;;;;;;14.68;8.98;;;21.30;72.40;;;;;;4947407;28;20122;-46
2023/05/31 00:11:09;;;;;;;15.45;7.65;;;21.30;72.40;;;;;;4938128;29;20028;-46
2023/05/31 00:13:35;;;;;;;11.77;8.10;;;21.30;72.40;;;;;;5004751;23;20093;-51
2023/05/31 00:16:01;;;;;;;9.10;6.95;;;21.30;72.50;;;;;;4961364;28;20035;-54
2023/05/31 00:18:27;;;;;;;11.50;7.67;;;21.30;72.50;;;;;;4972309;28;20027;-49
2023/05/31 00:20:52;;;;;;;10.68;7.38;;;21.30;72.60;;;;;;4963374;28;20031;-48
2023/05/31 00:23:18;;;;;;;12.48;8.30;;;21.20;72.70;;;;;;4967569;28;20058;-48
2023/05/31 00:25:44;;;;;;;9.57;7.57;;;21.20;72.80;;;;;;4972219;28;20110;-48
2023/05/31 00:28:10;;;;;;;12.65;7.13;;;21.30;72.90;;;;;;4959275;28;20035;-49
2023/05/31 00:30:36;;;;;;;8.77;7.00;;;21.20;73.10;;;;;;4968723;28;20038;-48
2023/05/31 00:33:04;;;;;;;12.90;7.90;;;21.20;73.40;;;;;;4961794;28;20075;-49
2023/05/31 00:35:30;;;;;;;10.85;7.25;;;21.20;73.60;;;;;;4960445;28;20078;-48
2023/05/31 00:37:56;;;;;;;8.48;6.55;;;21.20;73.60;;;;;;4943602;28;20027;-48
2023/05/31 00:40:22;;;;;;;9.80;7.17;;;21.20;73.50;;;;;;4966436;28;20031;-48
2023/05/31 00:42:48;;;;;;;9.52;6.95;;;21.20;73.60;;;;;;4967477;28;20086;-49
2023/05/31 00:45:14;;;;;;;9.57;7.20;;;21.20;73.40;;;;;;4964259;28;20036;-50
2023/05/31 00:47:41;;;;;;;9.90;7.10;;;21.20;73.50;;;;;;4967925;28;20403;-55
2023/05/31 00:50:07;;;;;;;;;;;21.20;73.60;;;;;;4958392;28;20078;-48
2023/05/31 00:52:34;;;;;;;8.55;7.03;;;21.20;73.90;;;;;;4971722;28;19910;-51
2023/05/31 00:55:01;;;;;;;9.70;7.25;;;21.10;74.00;;;;;;4956560;28;20415;-51
2023/05/31 00:57:27;;;;;;;16.05;7.30;;;21.10;74.50;;;;;;4954955;28;20050;-49
2023/05/31 00:59:53;;;;;;;8.27;6.63;;;21.10;74.60;;;;;;4956164;28;20089;-47
2023/05/31 01:02:20;;;;;;;8.52;6.90;;;21.10;74.90;;;;;;4956122;28;20047;-49
2023/05/31 01:04:47;;;;;;;12.53;8.60;;;21.10;75.00;;;;;;4956214;28;20027;-48
2023/05/31 01:07:13;;;;;;;12.98;7.10;;;21.10;75.30;;;;;;4954740;28;20039;-48
2023/05/31 01:09:42;;;;;;;11.20;8.53;;;21.10;75.70;;;;;;4956122;28;20396;-48
2023/05/31 01:12:46;;;;;;;9.05;7.20;;;21.10;75.90;;;;;;4954527;28;20484;-50
2023/05/31 01:15:45;;;;;;;8.82;7.35;;;21.10;74.80;;;;;;4954784;28;20071;-48
2023/05/31 01:18:25;;;;;;;;;;;21.10;74.90;;;;;;4954984;28;20391;-48
2023/05/31 01:20:53;;;;;;;12.48;7.90;;;21.00;74.80;;;;;;4954676;28;19965;-48
2023/05/31 01:23:39;;;;;;;10.75;7.28;;;21.00;75.80;;;;;;4955802;28;20031;-49
2023/05/31 01:26:36;;;;;;;20.05;9.10;;;21.00;75.00;;;;;;4954577;28;20038;-48
2023/05/31 01:29:06;;;;;;;10.35;7.72;;;21.10;76.70;;;;;;4945302;28;20050;-52
2023/05/31 01:31:35;;;;;;;10.40;8.10;;;21.00;76.40;;;;;;4964204;28;20035;-53
2023/05/31 01:34:04;;;;;;;10.13;7.88;;;21.00;76.40;;;;;;4943569;28;20054;-48
2023/05/31 01:36:31;;;;;;;11.27;7.80;;;21.10;76.80;;;;;;4966124;28;20023;-48
2023/05/31 01:38:57;;;;;;;10.32;7.78;;;21.00;76.60;;;;;;4970079;28;20027;-50
2023/05/31 01:41:26;;;;;;;9.65;7.30;;;21.00;77.10;;;;;;4970489;28;20027;-51
2023/05/31 01:43:52;;;;;;;12.02;8.23;;;21.00;77.30;;;;;;4968739;28;20037;-48
2023/05/31 01:46:19;;;;;;;14.07;8.80;;;21.00;77.40;;;;;;4956167;28;20496;-51
2023/05/31 01:48:47;;;;;;;14.48;7.78;;;21.00;77.70;;;;;;4971296;28;20274;-53
2023/05/31 01:51:15;;;;;;;14.15;8.68;;;21.00;77.70;;;;;;4955008;28;20028;-48
2023/05/31 01:53:42;;;;;;;9.70;7.45;;;21.00;78.00;;;;;;4951756;28;20026;-50
2023/05/31 01:56:11;;;;;;;11.52;8.38;;;20.90;78.30;;;;;;4958625;28;20019;-48
2023/05/31 01:58:41;;;;;;;13.82;8.43;;;20.90;78.20;;;;;;4956951;28;20031;-53
2023/05/31 02:01:11;;;;;;;10.35;7.65;;;20.90;78.20;;;;;;4964722;28;20539;-53
2023/05/31 02:03:40;;;;;;;9.65;7.80;;;20.90;77.80;;;;;;4946887;29;20056;-52
2023/05/31 02:06:06;;;;;;;12.45;7.93;;;20.90;78.40;;;;;;4955145;28;20027;-49
2023/05/31 02:08:32;;;;;;;14.45;8.32;;;20.90;78.60;;;;;;4950429;28;20028;-50
2023/05/31 02:11:00;;;;;;;13.02;8.75;;;20.90;78.40;;;;;;4919051;29;20516;-50
2023/05/31 02:13:27;;;;;;;11.60;8.07;;;20.80;78.70;;;;;;4934683;29;20119;-52
2023/05/31 02:15:57;;;;;;;11.50;8.73;;;20.80;78.60;;;;;;4934539;29;20107;-48
2023/05/31 02:18:26;;;;;;;13.48;8.38;;;20.80;78.40;;;;;;4934977;29;20183;-48
2023/05/31 02:20:53;;;;;;;12.43;8.23;;;20.80;79.30;;;;;;4969553;28;20411;-48
2023/05/31 02:23:20;;;;;;;10.80;8.15;;;20.80;79.30;;;;;;4954766;28;20031;-48
2023/05/31 02:25:46;;;;;;;;;;;20.80;79.10;;;;;;4955408;28;20388;-48
2023/05/31 02:28:12;;;;;;;10.35;7.78;;;20.80;78.60;;;;;;4952433;28;19921;-48
2023/05/31 02:30:38;;;;;;;12.75;8.35;;;20.70;79.30;;;;;;4953965;28;20122;-53
2023/05/31 02:33:04;;;;;;;12.60;8.20;;;20.70;78.70;;;;;;4959332;28;20122;-53
2023/05/31 02:35:32;;;;;;;10.38;7.70;;;20.60;78.80;;;;;;4959997;28;20183;-50
2023/05/31 02:37:57;;;;;;;10.80;8.38;;;20.60;79.50;;;;;;4960462;28;20031;-51
2023/05/31 02:40:23;;;;;;;10.18;7.05;;;20.60;79.50;;;;;;4960266;28;20492;-50
2023/05/31 02:42:49;;;;;;;12.15;8.35;;;20.60;78.80;;;;;;4967119;28;20049;-50
2023/05/31 02:45:15;;;;;;;12.73;8.07;;;20.60;78.80;;;;;;4966674;28;20023;-48
2023/05/31 02:47:41;;;;;;;10.82;8.07;;;20.50;79.10;;;;;;4957836;28;20037;-49
2023/05/31 02:50:09;;;;;;;7.95;6.45;;;20.50;79.60;;;;;;4961429;28;20035;-51
2023/05/31 02:52:42;;;;;;;12.73;7.95;;;20.40;79.20;;;;;;4965217;28;20062;-51
2023/05/31 02:55:33;;;;;;;11.98;8.77;;;20.40;79.80;;;;;;4958795;28;20035;-51
2023/05/31 02:58:16;;;;;;;13.20;8.75;;;20.40;80.80;;;;;;4964982;28;20062;-53
2023/05/31 03:00:51;;;;;;;14.27;8.93;;;20.30;81.70;;;;;;4971719;28;20034;-48
2023/05/31 03:03:18;;;;;;;11.65;9.00;;;20.30;82.30;;;;;;4955517;28;20106;-53
2023/05/31 03:06:00;;;;;;;13.43;9.40;;;20.30;83.10;;;;;;4948266;28;20121;-51
2023/05/31 03:08:26;;;;;;;12.02;9.60;;;20.20;83.90;;;;;;4966742;28;20061;-49
2023/05/31 03:10:52;;;;;;;17.83;10.35;;;20.20;84.80;;;;;;4968974;28;20694;-49
2023/05/31 03:13:17;;;;;;;17.33;9.82;;;20.20;85.40;;;;;;4959546;28;20403;-51
2023/05/31 03:15:44;;;;;;;13.27;10.35;;;20.20;86.00;;;;;;4962690;28;20031;-48
2023/05/31 03:18:10;;;;;;;12.43;9.95;;;20.10;86.60;;;;;;4952336;28;20016;-47
2023/05/31 03:20:38;;;;;;;14.00;10.57;;;20.10;87.20;;;;;;4952543;28;20042;-47
2023/05/31 03:23:04;;;;;;;15.15;10.10;;;20.10;87.70;;;;;;4969233;28;20301;-49
2023/05/31 03:25:30;;;;;;;13.90;10.93;;;20.00;87.90;;;;;;4968752;28;20031;-48
2023/05/31 03:27:57;;;;;;;16.15;11.60;;;20.00;88.50;;;;;;4954952;28;20089;-50
2023/05/31 03:30:23;;;;;;;12.77;10.00;;;19.90;89.80;;;;;;4966670;28;20126;-51
2023/05/31 03:32:55;;;;;;;14.15;11.77;;;19.80;89.70;;;;;;4960155;28;20479;-48
2023/05/31 03:35:21;;;;;;;17.52;10.75;;;19.70;90.20;;;;;;4959855;28;20027;-50
2023/05/31 03:37:47;;;;;;;13.77;11.23;;;19.80;90.50;;;;;;4973346;28;20027;-50
2023/05/31 03:40:13;;;;;;;13.73;11.63;;;19.60;90.80;;;;;;4957335;28;20524;-51
2023/05/31 03:42:39;;;;;;;14.93;12.18;;;19.60;91.00;;;;;;4967951;28;20110;-53
2023/05/31 03:45:07;;;;;;;14.25;12.07;;;19.60;91.30;;;;;;4964154;28;20031;-47
2023/05/31 03:47:33;;;;;;;14.82;11.85;;;19.60;91.50;;;;;;4950399;28;20039;-50
2023/05/31 03:49:59;;;;;;;15.13;11.63;;;19.50;91.80;;;;;;4973959;28;20027;-53
2023/05/31 03:52:25;;;;;;;17.17;13.00;;;19.50;91.90;;;;;;4957353;28;20276;-51
2023/05/31 03:54:51;;;;;;;16.60;11.90;;;19.50;92.20;;;;;;4968902;28;20031;-48
2023/05/31 03:57:17;;;;;;;13.30;11.90;;;19.40;92.30;;;;;;4955881;28;20034;-54
2023/05/31 03:59:43;;;;;;;17.13;12.85;;;19.40;92.50;;;;;;4957744;28;20039;-48
2023/05/31 04:02:08;;;;;;;15.93;12.00;;;19.40;92.50;;;;;;4949662;28;20029;-48
2023/05/31 04:04:35;;;;;;;18.58;13.57;;;19.40;92.50;;;;;;4938429;29;20031;-56
2023/05/31 04:07:01;;;;;;;17.17;11.87;;;19.40;92.40;;;;;;4952882;28;20099;-48
2023/05/31 04:09:27;;;;;;;15.35;12.02;;;19.40;92.30;;;;;;4936757;29;20520;-51
2023/05/31 04:11:54;;;;;;;17.15;12.15;;;19.40;92.30;;;;;;4936694;29;20039;-53
2023/05/31 04:14:19;;;;;;;16.00;11.48;;;19.50;92.40;;;;;;4936720;29;20036;-49
2023/05/31 04:16:47;;;;;;;13.85;11.98;;;19.50;92.30;;;;;;4936625;29;20032;-49
2023/05/31 04:19:14;;;;;;;;;;;19.50;92.60;;;;;;4952892;28;20095;-51
2023/05/31 04:21:40;;;;;;;13.98;11.60;;;19.60;91.50;;;;;;4936464;29;19910;-48
2023/05/31 04:24:07;;;;;;;13.77;11.77;;;19.60;92.40;;;;;;4936576;29;20039;-48
2023/05/31 04:26:34;;;;;;;15.10;11.27;;;19.60;92.30;;;;;;4937804;29;20054;-48
2023/05/31 04:29:02;;;;;;;19.38;12.35;;;19.60;92.60;;;;;;4936163;29;20035;-50
2023/05/31 04:31:29;;;;;;;15.55;12.60;;;19.60;92.90;;;;;;4936308;29;20513;-52
2023/05/31 04:33:56;;;;;;;13.15;10.80;;;19.60;92.90;;;;;;4936493;29;20531;-49
2023/05/31 04:36:24;;;;;;;17.20;11.20;;;19.60;92.40;;;;;;4952357;28;20027;-48
2023/05/31 04:38:51;;;;;;;;;;;19.70;92.10;;;;;;4952814;28;20454;-48
2023/05/31 04:41:25;;;;;;;15.43;10.40;;;19.70;92.00;;;;;;4951727;29;19907;-48
2023/05/31 04:43:53;;;;;;;15.98;11.88;;;19.70;91.90;;;;;;4952276;28;20038;-51
2023/05/31 04:46:22;;;;;;;15.55;11.07;;;19.70;92.10;;;;;;4952171;28;20039;-51
2023/05/31 04:48:50;;;;;;;14.80;11.48;;;19.70;92.30;;;;;;4951951;28;20090;-50
2023/05/31 04:51:17;;;;;;;15.48;11.93;;;19.70;92.40;;;;;;4936338;29;20032;-53
2023/05/31 04:53:47;;;;;;;13.83;10.50;;;19.80;92.40;;;;;;4961015;28;20043;-48
2023/05/31 04:56:15;;;;;;;14.20;11.18;;;19.90;92.00;;;;;;4955160;28;20357;-49
2023/05/31 04:58:41;;;;;;;18.53;12.20;;;19.90;92.40;;;;;;4955035;28;20020;-51
2023/05/31 05:01:08;;;;;;;16.23;12.30;;;20.00;92.50;;;;;;4955026;28;20031;-48
2023/05/31 05:03:52;;;;;;;14.68;11.80;;;20.00;92.40;;;;;;4954977;28;20031;-50
2023/05/31 05:06:18;;;;;;;15.65;11.05;;;20.00;92.20;;;;;;4971186;28;20038;-50
2023/05/31 05:08:45;;;;;;;16.03;11.17;;;20.10;92.00;;;;;;4954754;28;20534;-48
2023/05/31 05:11:12;;;;;;;14.43;11.15;;;20.10;92.10;;;;;;4954843;28;20035;-49
2023/05/31 05:13:38;;;;;;;20.88;13.75;;;20.10;92.20;;;;;;4954719;28;20126;-50
2023/05/31 05:16:04;;;;;;;15.40;11.65;;;20.10;92.20;;;;;;4954780;28;20027;-49
2023/05/31 05:18:31;;;;;;;14.05;11.00;;;20.20;92.10;;;;;;4954621;28;20408;-50
2023/05/31 05:20:57;;;;;;;15.55;12.75;;;20.20;92.10;;;;;;4954731;28;20031;-49
2023/05/31 05:23:26;;;;;;;13.98;11.90;;;20.20;91.90;;;;;;4954567;28;20508;-49
2023/05/31 05:25:54;;;;;;;17.60;12.07;;;20.20;92.20;;;;;;4954652;28;20118;-48
2023/05/31 05:28:20;;;;;;;14.57;11.98;;;20.30;91.90;;;;;;4954415;28;20114;-48
2023/05/31 05:30:45;;;;;;;19.50;12.63;;;20.30;91.70;;;;;;4954495;28;20039;-48
2023/05/31 05:33:11;;;;;;;16.77;12.40;;;20.40;91.80;;;;;;4954535;28;20492;-51
2023/05/31 05:35:37;;;;;;;17.17;11.73;;;20.50;91.80;;;;;;4954480;28;20019;-48
2023/05/31 05:38:03;;;;;;;16.33;12.55;;;20.50;91.90;;;;;;4954362;28;20027;-49
2023/05/31 05:40:29;;;;;;;15.50;11.90;;;20.60;91.50;;;;;;4955669;28;20035;-50
2023/05/31 05:42:55;;;;;;;17.35;12.27;;;20.60;91.00;;;;;;4954174;28;20034;-49
2023/05/31 05:45:21;;;;;;;17.45;11.70;;;20.50;91.80;;;;;;4954272;28;20632;-48
2023/05/31 05:47:48;;;;;;;13.55;11.32;;;20.60;90.50;;;;;;4954214;28;20031;-49
2023/05/31 05:50:16;;;;;;;14.48;11.35;;;20.50;90.60;;;;;;4954165;28;20037;-48
2023/05/31 05:52:42;;;;;;;20.80;9.85;;;20.60;90.10;;;;;;4938453;29;20500;-53
2023/05/31 05:55:09;;;;;;;12.07;9.93;;;20.60;90.00;;;;;;4955484;28;20031;-48
2023/05/31 05:57:35;;;;;;;14.02;10.50;;;20.60;88.80;;;;;;4953867;28;20040;-52
2023/05/31 06:00:23;;;;;;;12.63;9.98;;;20.50;88.00;;;;;;4953938;28;20035;-51
2023/05/31 06:02:50;;;;;;;17.02;10.30;;;20.60;88.50;;;;;;4953802;28;20028;-50
2023/05/31 06:05:16;;;;;;;13.27;9.55;;;20.70;89.00;;;;;;4953990;28;20027;-48
2023/05/31 06:07:42;;;;;;;12.25;9.82;;;20.80;89.40;;;;;;4953767;28;20035;-48
2023/05/31 06:10:10;;;;;;;14.07;10.98;;;20.80;85.80;;;;;;4953744;28;20031;-48
2023/05/31 06:12:36;;;;;;;16.58;9.82;;;20.80;86.20;;;;;;4953596;28;20496;-48
2023/05/31 06:15:02;;;;;;;11.63;8.93;;;20.80;85.10;;;;;;4953833;28;20031;-48
2023/05/31 06:17:29;;;;;;;13.00;9.15;;;20.80;83.40;;;;;;4953503;28;20062;-52
2023/05/31 06:19:54;;;;;;;18.67;10.15;;;20.80;82.90;;;;;;4953784;28;20122;-48
2023/05/31 06:22:20;;;;;;;13.20;9.52;;;20.80;82.40;;;;;;4953577;28;20038;-48
2023/05/31 06:24:46;;;;;;;13.57;10.13;;;20.70;83.70;;;;;;4953674;28;20118;-48
2023/05/31 06:27:14;;;;;;;12.02;8.13;;;20.70;85.10;;;;;;4953370;28;20055;-50
2023/05/31 06:29:41;;;;;;;11.85;9.23;;;20.80;83.50;;;;;;4953377;28;20046;-50
2023/05/31 06:32:26;;;;;;;10.02;7.53;;;20.90;81.60;;;;;;4954930;29;20034;-50
2023/05/31 06:34:52;;;;;;;13.48;7.72;;;20.90;81.30;;;;;;4937460;29;20030;-49
2023/05/31 06:37:20;;;;;;;10.02;6.80;;;21.00;81.10;;;;;;4953155;28;20038;-48
2023/05/31 06:39:46;;;;;;;11.07;7.50;;;21.10;80.30;;;;;;4953334;28;20031;-48
2023/05/31 06:42:13;;;;;;;10.77;7.97;;;21.20;79.10;;;;;;4953271;28;20035;-48
2023/05/31 06:45:06;;;;;;;10.95;7.63;;;21.20;78.50;;;;;;4954444;28;20118;-48
2023/05/31 06:47:50;;;;;;;10.95;8.13;;;21.30;79.50;;;;;;4954387;28;20520;-51
2023/05/31 06:50:21;;;;;;;9.25;7.55;;;21.30;81.30;;;;;;4954409;28;20046;-50
2023/05/31 06:53:25;;;;;;;8.00;6.40;;;21.40;78.70;;;;;;4951975;29;20110;-48
2023/05/31 06:56:02;;;;;;;9.68;6.60;;;21.40;77.90;;;;;;4952023;29;20039;-48
2023/05/31 06:58:31;;;;;;;9.83;6.83;;;21.50;77.30;;;;;;4943480;29;20039;-48
2023/05/31 07:00:57;;;;;;;8.98;6.60;;;21.50;78.10;;;;;;4953251;28;20035;-48
2023/05/31 07:03:23;;;;;;;8.60;6.87;;;21.50;76.90;;;;;;4952827;28;20046;-48
2023/05/31 07:05:49;;;;;;;10.37;7.57;;;21.60;75.90;;;;;;4953000;28;20043;-49
2023/05/31 07:08:15;;;;;;;11.02;6.75;;;21.60;76.50;;;;;;4952647;28;20031;-49
2023/05/31 07:11:16;;;;;;;7.50;5.85;;;21.60;75.90;;;;;;4932595;29;20062;-51
2023/05/31 07:13:42;;;;;;;6.93;5.45;;;21.70;76.20;;;;;;4948336;29;20505;-48
2023/05/31 07:16:08;;;;;;;8.13;5.82;;;21.80;75.70;;;;;;4952731;28;20031;-49
2023/05/31 07:18:34;;;;;;;8.52;6.50;;;21.80;75.90;;;;;;4953765;28;20035;-48
2023/05/31 07:21:00;;;;;;;7.73;6.00;;;21.90;74.90;;;;;;4952669;28;20066;-48
2023/05/31 07:23:26;;;;;;;7.55;5.22;;;22.00;74.70;;;;;;4953014;28;20385;-48
2023/05/31 07:25:52;;;;;;;11.57;6.32;;;22.10;73.70;;;;;;4953962;28;20019;-48
2023/05/31 07:28:18;;;;;;;7.55;6.10;;;22.10;74.50;;;;;;4953570;28;20027;-48
2023/05/31 07:30:43;;;;;;;11.53;6.37;;;22.10;74.70;;;;;;4953794;28;20381;-48
2023/05/31 07:33:09;;;;;;;10.00;6.13;;;22.20;74.20;;;;;;4953699;28;20051;-48
2023/05/31 07:35:35;;;;;;;8.90;6.70;;;22.20;72.80;;;;;;4953713;28;20027;-50
2023/05/31 07:38:01;;;;;;;8.00;6.50;;;22.20;72.70;;;;;;4952393;28;20051;-50
2023/05/31 07:40:27;;;;;;;8.50;6.03;;;22.30;73.00;;;;;;4953681;28;20042;-51
2023/05/31 07:42:53;;;;;;;7.13;5.50;;;22.40;70.90;;;;;;4953579;28;20046;-48
2023/05/31 07:45:19;;;;;;;8.75;5.47;;;22.40;69.70;;;;;;4953850;28;20055;-50
2023/05/31 07:47:45;;;;;;;9.60;6.43;;;22.40;69.50;;;;;;4953396;28;20043;-49
2023/05/31 07:50:11;;;;;;;8.50;5.90;;;22.50;68.40;;;;;;4953599;28;20046;-51
2023/05/31 07:52:37;;;;;;;14.50;7.17;;;22.50;68.20;;;;;;4953560;28;20500;-49
2023/05/31 07:55:03;;;;;;;8.82;6.13;;;22.60;67.40;;;;;;4952439;28;20094;-51
2023/05/31 07:57:29;;;;;;;10.73;7.35;;;22.70;66.50;;;;;;4952159;29;20110;-50
2023/05/31 07:59:55;;;;;;;8.90;6.50;;;22.70;65.70;;;;;;4953583;28;20459;-51
2023/05/31 08:02:20;;;;;;;10.48;6.45;;;22.70;66.90;;;;;;4953453;28;20106;-50
2023/05/31 08:04:48;;;;;;;8.50;6.43;;;22.80;67.30;;;;;;4953433;28;20023;-50
2023/05/31 08:07:13;;;;;;;10.80;6.53;;;22.90;68.10;;;;;;4953215;28;20058;-51
2023/05/31 08:09:39;;;;;;;9.15;6.97;;;22.90;65.60;;;;;;4953360;28;20039;-48
2023/05/31 08:12:06;;;;;;;11.37;7.10;;;23.00;64.40;;;;;;4953177;29;20031;-52
2023/05/31 08:14:32;;;;;;;11.10;6.07;;;23.00;64.40;;;;;;4953380;28;20085;-47
2023/05/31 08:16:58;;;;;;;9.70;6.60;;;23.00;63.60;;;;;;4953326;28;20114;-48
2023/05/31 08:19:23;;;;;;;12.83;7.33;;;23.10;64.90;;;;;;4953341;28;20035;-50
2023/05/31 08:21:51;;;;;;;11.35;6.72;;;23.10;64.30;;;;;;4953333;28;20396;-50
2023/05/31 08:24:17;;;;;;;10.25;5.95;;;23.10;63.50;;;;;;4953244;28;20492;-49
2023/05/31 08:26:43;;;;;;;8.50;5.22;;;23.20;64.50;;;;;;4953186;28;20059;-52
2023/05/31 08:29:09;;;;;;;8.57;6.33;;;23.30;63.60;;;;;;4953372;28;20027;-48
2023/05/31 08:31:35;;;;;;;9.07;5.70;;;23.40;62.90;;;;;;4953118;28;20484;-49
2023/05/31 08:34:01;;;;;;;9.93;6.72;;;23.40;61.80;;;;;;4952096;29;20067;-48
2023/05/31 08:36:27;;;;;;;8.60;5.93;;;23.50;61.20;;;;;;4955136;28;20126;-49
2023/05/31 08:38:52;;;;;;;14.13;6.50;;;23.50;60.30;;;;;;4956619;28;20031;-48
2023/05/31 08:41:18;;;;;;;8.20;6.47;;;23.60;61.50;;;;;;4956678;28;20118;-48
2023/05/31 08:43:48;;;;;;;8.57;5.63;;;23.70;61.10;;;;;;4956550;28;20753;-47
2023/05/31 08:46:15;;;;;;;10.95;6.65;;;23.70;59.80;;;;;;4956605;28;20028;-48
2023/05/31 08:49:05;;;;;;;9.27;6.28;;;23.80;60.00;;;;;;4956735;28;20392;-47
2023/05/31 08:51:34;;;;;;;11.77;5.72;;;23.90;60.50;;;;;;4956423;28;20043;-48
2023/05/31 08:54:01;;;;;;;10.73;5.43;;;23.90;59.90;;;;;;4956550;28;20038;-49
2023/05/31 08:56:27;;;;;;;;;;;24.00;60.30;;;;;;4956893;28;20551;-50
2023/05/31 08:58:54;;;;;;;6.57;4.88;;;24.00;58.40;;;;;;4955055;28;19922;-48
2023/05/31 09:01:20;;;;;;;7.65;4.72;;;24.20;58.80;;;;;;4956420;28;20515;-49
2023/05/31 09:03:46;;;;;;;15.55;6.00;;;24.20;59.50;;;;;;4955058;29;20457;-49
2023/05/31 09:06:12;;;;;;;7.80;5.15;;;24.30;58.10;;;;;;4956273;28;20027;-48
2023/05/31 09:08:38;;;;;;;13.63;5.00;;;24.40;57.70;;;;;;4956168;28;20031;-48
2023/05/31 09:11:07;;;;;;;10.67;5.30;;;24.40;57.30;;;;;;4956060;28;20122;-48
2023/05/31 09:13:33;;;;;;;6.07;4.65;;;24.60;56.90;;;;;;4955900;28;20097;-50
2023/05/31 09:16:00;;;;;;;7.87;4.13;;;24.70;55.10;;;;;;4956135;28;20110;-48
2023/05/31 09:18:30;;;;;;;7.82;4.43;;;24.70;54.20;;;;;;4956017;28;20501;-48
2023/05/31 09:20:56;;;;;;;6.78;4.30;;;24.80;54.00;;;;;;4954860;29;20035;-48
2023/05/31 09:23:22;;;;;;;8.50;4.50;;;24.90;53.80;;;;;;4956148;28;20042;-51
2023/05/31 09:25:52;;;;;;;11.95;3.78;;;25.00;54.00;;;;;;4955853;28;20404;-48
2023/05/31 09:28:21;;;;;;;11.07;4.88;;;25.00;53.80;;;;;;4955766;28;20038;-50
2023/05/31 09:31:09;;;;;;;14.95;4.82;;;25.00;54.00;;;;;;4954628;29;20031;-48
2023/05/31 09:33:40;;;;;;;;;;;25.10;52.90;;;;;;4956226;28;20027;-48
2023/05/31 09:36:07;;;;;;;9.25;4.90;;;25.10;53.10;;;;;;4955920;28;19911;-49
2023/05/31 09:38:34;;;;;;;10.43;5.45;;;25.20;55.80;;;;;;4954405;29;20085;-48
2023/05/31 09:41:13;;;;;;;12.98;6.50;;;25.30;55.60;;;;;;4955704;28;20094;-48
2023/05/31 09:43:49;;;;;;;6.63;4.43;;;25.40;54.70;;;;;;4955509;28;20576;-51
2023/05/31 09:46:21;;;;;;;5.90;4.45;;;25.40;55.90;;;;;;4953719;28;20552;-51
2023/05/31 09:49:03;;;;;;;11.60;4.82;;;25.40;54.40;;;;;;4955240;28;20496;-49
2023/05/31 09:51:33;;;;;;;9.80;4.63;;;25.50;53.60;;;;;;4955389;28;20071;-48
2023/05/31 09:54:17;;;;;;;8.55;4.45;;;25.60;54.20;;;;;;4954166;28;20086;-48
2023/05/31 09:56:43;;;;;;;11.20;5.60;;;25.70;52.60;;;;;;4954196;28;20032;-49
2023/05/31 09:59:10;;;;;;;7.30;4.85;;;25.80;53.30;;;;;;4955428;28;20032;-49
2023/05/31 10:01:36;;;;;;;8.32;4.78;;;25.80;53.70;;;;;;4938159;29;20404;-49
2023/05/31 10:04:04;;;;;;;9.88;5.47;;;25.90;53.10;;;;;;4954044;29;20031;-50
2023/05/31 10:06:35;;;;;;;7.30;4.93;;;26.00;52.30;;;;;;4953915;29;20085;-48
2023/05/31 10:09:06;;;;;;;15.18;5.95;;;26.10;53.30;;;;;;4955025;28;20039;-48
2023/05/31 10:11:36;;;;;;;6.72;5.57;;;26.20;51.50;;;;;;4955141;28;20027;-48
2023/05/31 10:14:07;;;;;;;7.45;5.43;;;26.20;52.70;;;;;;4953749;28;20031;-55
2023/05/31 10:16:49;;;;;;;8.05;6.07;;;26.30;52.60;;;;;;4955051;28;20035;-48
2023/05/31 10:19:24;;;;;;;10.05;4.65;;;26.30;52.00;;;;;;4958514;28;20018;-50
2023/05/31 10:21:50;;;;;;;8.48;5.13;;;26.40;51.80;;;;;;4965630;28;20114;-52
2023/05/31 10:24:52;;;;;;;8.90;5.38;;;26.40;51.80;;;;;;4961010;28;20066;-50
2023/05/31 10:27:27;;;;;;;10.38;5.18;;;26.60;53.10;;;;;;4953995;29;20041;-50
2023/05/31 10:29:56;;;;;;;7.35;4.90;;;26.60;51.20;;;;;;4937568;28;20042;-50
2023/05/31 10:32:29;;;;;;;8.73;5.30;;;26.60;51.30;;;;;;4937398;29;20035;-48
2023/05/31 10:34:55;;;;;;;6.85;4.93;;;26.60;51.40;;;;;;4953211;28;20577;-51
2023/05/31 10:37:22;;;;;;;8.43;6.05;;;26.60;50.90;;;;;;4969247;28;20476;-50
2023/05/31 10:40:09;;;;;;;7.97;5.75;;;26.60;52.20;;;;;;4954415;28;20424;-51
2023/05/31 10:42:41;;;;;;;8.25;5.40;;;26.70;53.30;;;;;;4957501;28;20038;-50
2023/05/31 10:45:19;;;;;;;8.23;5.13;;;26.80;52.50;;;;;;4960272;28;20077;-48
2023/05/31 10:48:13;;;;;;;10.40;5.20;;;26.90;53.50;;;;;;4969077;28;20031;-50
2023/05/31 10:51:00;;;;;;;12.48;6.00;;;27.10;50.90;;;;;;4945673;28;20050;-49
2023/05/31 10:53:30;;;;;;;9.77;5.65;;;27.20;52.10;;;;;;4959139;28;20389;-48
2023/05/31 10:56:09;;;;;;;16.02;5.45;;;27.30;50.50;;;;;;4954310;28;20031;-50
2023/05/31 10:58:47;;;;;;;11.98;4.78;;;27.30;49.90;;;;;;4961552;28;20062;-48
2023/05/31 11:01:14;;;;;;;10.10;5.60;;;27.40;51.10;;;;;;4951615;28;20038;-48
2023/05/31 11:03:51;;;;;;;10.20;5.07;;;27.50;49.60;;;;;;4953658;28;20039;-48
2023/05/31 11:06:25;;;;;;;8.80;4.32;;;27.60;50.00;;;;;;4953836;28;20043;-47
2023/05/31 11:09:12;;;;;;;9.43;5.22;;;27.70;50.80;;;;;;4956480;28;20199;-48
2023/05/31 11:11:41;;;;;;;6.22;4.65;;;27.80;49.00;;;;;;4953821;28;20032;-49
2023/05/31 11:14:10;;;;;;;7.97;5.20;;;27.90;50.90;;;;;;4961089;28;20035;-49
2023/05/31 11:17:07;;;;;;;9.43;4.60;;;28.10;49.30;;;;;;4956639;28;20057;-47
2023/05/31 11:19:35;;;;;;;8.18;4.47;;;28.10;49.30;;;;;;4935740;29;20126;-49
2023/05/31 11:22:18;;;;;;;10.68;5.18;;;28.20;50.20;;;;;;4962402;28;20064;-49
2023/05/31 11:24:52;;;;;;;5.90;4.88;;;28.30;49.50;;;;;;4962886;28;20069;-48
2023/05/31 11:27:23;;;;;;;6.85;5.05;;;28.30;49.80;;;;;;4965837;28;20519;-50
2023/05/31 11:29:52;;;;;;;6.72;4.95;;;28.40;48.40;;;;;;4961157;28;20031;-47
2023/05/31 11:32:42;;;;;;;6.03;4.28;;;28.40;49.50;;;;;;4954917;28;20397;-49
2023/05/31 11:35:11;;;;;;;7.45;5.10;;;28.40;49.90;;;;;;4970947;28;20043;-52
2023/05/31 11:37:38;;;;;;;8.15;4.45;;;28.30;49.30;;;;;;4974189;28;20030;-50
2023/05/31 11:40:09;;;;;;;5.55;4.63;;;28.40;49.50;;;;;;4970262;28;20488;-48
2023/05/31 11:42:40;;;;;;;10.45;4.63;;;28.50;49.60;;;;;;4958476;28;20484;-50
2023/05/31 11:45:08;;;;;;;7.00;4.60;;;28.50;48.80;;;;;;4967955;28;20503;-49
2023/05/31 11:47:46;;;;;;;7.72;4.38;;;28.80;49.70;;;;;;4945670;28;20023;-49
2023/05/31 11:50:13;;;;;;;8.65;3.95;;;28.90;48.40;;;;;;4962597;28;20070;-48
2023/05/31 11:52:40;;;;;;;8.20;4.43;;;29.10;48.30;;;;;;4958306;28;20031;-49
2023/05/31 11:55:07;;;;;;;6.53;4.43;;;29.10;48.30;;;;;;4967262;28;20046;-48
2023/05/31 11:57:46;;;;;;;6.20;3.92;;;29.20;47.00;;;;;;4966096;28;20030;-48
2023/05/31 12:00:15;;;;;;;8.38;4.15;;;29.30;47.30;;;;;;4954570;28;20047;-48
2023/05/31 12:02:42;;;;;;;7.60;3.97;;;29.40;47.30;;;;;;4955306;28;20039;-48
2023/05/31 12:05:19;;;;;;;6.47;4.38;;;29.40;47.10;;;;;;4963642;28;20118;-48
2023/05/31 12:07:46;;;;;;;5.60;4.13;;;29.30;46.80;;;;;;4965461;28;20067;-48
2023/05/31 12:10:12;;;;;;;10.32;4.32;;;29.40;45.50;;;;;;4960647;28;20066;-48
2023/05/31 12:12:42;;;;;;;7.05;4.30;;;29.40;46.30;;;;;;5004223;23;20069;-51
2023/05/31 12:15:11;;;;;;;8.50;4.43;;;29.60;45.90;;;;;;4975859;28;20090;-55
2023/05/31 12:17:38;;;;;;;8.65;4.57;;;29.70;45.70;;;;;;4964923;28;20454;-56
2023/05/31 12:20:05;;;;;;;8.25;4.57;;;29.70;44.30;;;;;;4969208;28;20071;-57
2023/05/31 12:22:31;;;;;;;7.72;4.50;;;29.60;45.40;;;;;;4966380;28;20078;-56
2023/05/31 12:24:57;;;;;;;9.00;4.00;;;29.60;46.70;;;;;;4974506;28;20038;-53
2023/05/31 12:27:24;;;;;;;17.23;4.43;;;29.70;47.80;;;;;;4961247;28;20027;-56
2023/05/31 12:29:54;;;;;;;9.52;4.07;;;29.80;46.60;;;;;;4972078;28;20038;-58
2023/05/31 12:32:21;;;;;;;6.50;4.45;;;29.90;47.20;;;;;;4966247;28;20023;-55
2023/05/31 12:34:47;;;;;;;7.35;3.70;;;30.10;44.80;;;;;;4972834;28;20035;-53
2023/05/31 12:37:13;;;;;;;8.23;3.70;;;30.10;45.10;;;;;;4976496;28;20545;-55
2023/05/31 12:39:40;;;;;;;7.82;4.97;;;30.00;44.40;;;;;;4972783;28;20278;-56
2023/05/31 12:42:07;;;;;;;8.15;4.53;;;30.00;43.50;;;;;;4966368;28;20038;-56
2023/05/31 12:44:34;;;;;;;7.40;3.80;;;29.80;43.10;;;;;;4971104;28;20035;-53
2023/05/31 12:47:02;;;;;;;10.25;4.28;;;29.80;44.60;;;;;;4976738;28;20027;-56
2023/05/31 12:49:30;;;;;;;8.23;3.83;;;30.10;44.70;;;;;;4962441;28;20430;-58
2023/05/31 12:52:06;;;;;;;6.95;3.65;;;30.20;45.10;;;;;;4970062;28;20031;-56